Terminal Aerodrome Forecast
Issued by NWS Sterling, VA

Current Version | Previous Version | Graphics & Text | Print | Product List | Glossary On
Versions: 1 2 3 4 5 6 7 8 9 10 11 12 13 14 15 16 17 18 19 20 21 22 23
000
FTUS41 KLWX 061454 AAA
TAFDCA
TAF AMD
KDCA 061454Z 0615/0712 18007KT P6SM SCT020 BKN035
     FM062100 16009KT 3SM -TSRA BKN050CB
     FM070000 17005KT 6SM -SHRA VCTS BKN050CB
     FM070400 VRB05KT P6SM SCT050 BKN090=

USA.gov is the U.S. government's official web portal to all federal, state and local government web resources and services.